| time (UTC) | temp F | wind direction | speed MPH | gust MPH | rain 1hr in | rain 24hr in | rain mn in | humidity % | barometer mb |
| 20260508182409 | 58 | 333 | 0.0 | 1.0 | 0.00 | 0.06 | 0.06 | 76 | 1008.7 |
| 20260508181910 | 58 | 333 | 0.0 | 0.0 | 0.00 | 0.06 | 0.06 | 75 | 1008.7 |
| 20260508181409 | 58 | 333 | 0.0 | 1.0 | 0.00 | 0.06 | 0.06 | 76 | 1008.7 |
| 20260508180909 | 58 | 333 | 1.0 | 3.0 | 0.00 | 0.06 | 0.06 | 75 | 1008.7 |
| 20260508180409 | 58 | 333 | 2.0 | 5.0 | 0.00 | 0.06 | 0.06 | 75 | 1008.6 |
| 20260508175910 | 58 | 333 | 2.0 | 6.0 | 0.00 | 0.06 | 0.06 | 74 | 1008.6 |
| 20260508175409 | 58 | 333 | 4.0 | 6.0 | 0.00 | 0.06 | 0.06 | 75 | 1008.6 |
| 20260508174909 | 58 | 331 | 2.0 | 5.0 | 0.00 | 0.06 | 0.06 | 74 | 1008.6 |
| 20260508174409 | 58 | 331 | 3.0 | 6.0 | 0.00 | 0.06 | 0.06 | 76 | 1008.7 |
| 20260508173910 | 58 | 249 | 1.0 | 5.0 | 0.00 | 0.06 | 0.06 | 75 | 1008.8 |
| 20260508173409 | 59 | 248 | 3.0 | 6.0 | 0.00 | 0.06 | 0.06 | 78 | 1008.9 |
| 20260508172910 | 59 | 249 | 5.0 | 7.0 | 0.00 | 0.06 | 0.06 | 75 | 1009.0 |
| 20260508172409 | 59 | 249 | 2.0 | 6.0 | 0.00 | 0.06 | 0.06 | 74 | 1009.0 |
| 20260508171909 | 59 | 249 | 1.0 | 7.0 | 0.00 | 0.06 | 0.06 | 73 | 1009.0 |
| 20260508171409 | 59 | 243 | 5.0 | 8.0 | 0.00 | 0.06 | 0.06 | 76 | 1009.0 |
| 20260508170910 | 59 | 234 | 5.0 | 7.0 | 0.00 | 0.06 | 0.06 | 76 | 1009.0 |
| 20260508170409 | 59 | 241 | 4.0 | 8.0 | 0.00 | 0.06 | 0.06 | 73 | 1008.9 |
| 20260508164909 | 60 | 224 | 8.0 | 13.0 | 0.00 | 0.06 | 0.06 | 70 | 1008.8 |
| 20260508164409 | 60 | 213 | 8.0 | 13.0 | 0.00 | 0.06 | 0.06 | 72 | 1008.8 |
| 20260508163909 | 59 | 223 | 7.0 | 10.0 | 0.00 | 0.06 | 0.06 | 74 | 1008.8 |
| 20260508163409 | 59 | 256 | 6.0 | 12.0 | 0.00 | 0.06 | 0.06 | 77 | 1008.9 |
| 20260508162910 | 58 | 283 | 5.0 | 8.0 | 0.00 | 0.06 | 0.06 | 79 | 1008.9 |
| 20260508162409 | 58 | 259 | 5.0 | 12.0 | 0.00 | 0.06 | 0.06 | 78 | 1008.9 |
| 20260508161909 | 58 | 231 | 9.0 | 13.0 | 0.00 | 0.06 | 0.06 | 77 | 1008.9 |
| 20260508161409 | 59 | 219 | 6.0 | 9.0 | 0.00 | 0.06 | 0.06 | 79 | 1009.0 |
| 20260508160910 | 59 | 259 | 5.0 | 10.0 | 0.00 | 0.06 | 0.06 | 79 | 1009.0 |
| 20260508160409 | 58 | 260 | 3.0 | 7.0 | 0.00 | 0.06 | 0.06 | 83 | 1009.0 |
| 20260508155910 | 57 | 242 | 3.0 | 7.0 | 0.00 | 0.06 | 0.06 | 84 | 1009.0 |
| 20260508154409 | 58 | 240 | 7.0 | 15.0 | 0.00 | 0.06 | 0.06 | 81 | 1009.0 |
| 20260508153909 | 58 | 236 | 7.0 | 13.0 | 0.00 | 0.06 | 0.06 | 80 | 1009.0 |
| 20260508153409 | 58 | 250 | 7.0 | 15.0 | 0.00 | 0.06 | 0.06 | 80 | 1009.0 |
| 20260508152910 | 58 | 242 | 6.0 | 15.0 | 0.00 | 0.06 | 0.06 | 81 | 1009.1 |
| 20260508152409 | 58 | 243 | 8.0 | 12.0 | 0.00 | 0.06 | 0.06 | 82 | 1009.0 |
| 20260508151909 | 58 | 251 | 5.0 | 12.0 | 0.00 | 0.06 | 0.06 | 81 | 1009.1 |
| 20260508151409 | 58 | 244 | 7.0 | 13.0 | 0.00 | 0.06 | 0.06 | 81 | 1009.1 |
| 20260508150909 | 59 | 238 | 7.0 | 12.0 | 0.00 | 0.06 | 0.06 | 81 | 1009.1 |
| 20260508150409 | 59 | 257 | 7.0 | 12.0 | 0.00 | 0.06 | 0.06 | 80 | 1009.1 |
| 20260508145910 | 59 | 249 | 6.0 | 12.0 | 0.00 | 0.06 | 0.06 | 82 | 1009.2 |
| 20260508144409 | 58 | 225 | 5.0 | 8.0 | 0.00 | 0.06 | 0.06 | 83 | 1009.4 |
| 20260508143909 | 58 | 266 | 5.0 | 12.0 | 0.00 | 0.06 | 0.06 | 84 | 1009.4 |
| 20260508143409 | 58 | 236 | 5.0 | 8.0 | 0.00 | 0.06 | 0.06 | 84 | 1009.4 |
| 20260508142910 | 57 | 246 | 4.0 | 8.0 | 0.00 | 0.06 | 0.06 | 84 | 1009.5 |
| 20260508142409 | 58 | 248 | 5.0 | 9.0 | 0.00 | 0.06 | 0.06 | 83 | 1009.6 |
| 20260508141909 | 58 | 227 | 5.0 | 9.0 | 0.00 | 0.06 | 0.06 | 83 | 1009.6 |
| 20260508141410 | 57 | 255 | 5.0 | 8.0 | 0.00 | 0.06 | 0.06 | 86 | 1009.7 |
| 20260508140909 | 57 | 306 | 2.0 | 7.0 | 0.00 | 0.06 | 0.06 | 84 | 1009.7 |
| 20260508140410 | 58 | 241 | 6.0 | 9.0 | 0.00 | 0.06 | 0.06 | 85 | 1009.8 |
| 20260508135911 | 56 | 284 | 3.0 | 7.0 | 0.00 | 0.06 | 0.06 | 89 | 1009.8 |
| 20260508135409 | 56 | 249 | 6.0 | 8.0 | 0.00 | 0.06 | 0.06 | 92 | 1010.0 |
| 20260508134909 | 56 | 232 | 2.0 | 6.0 | 0.01 | 0.06 | 0.06 | 92 | 1010.1 |
| 20260508134409 | 54 | 232 | 5.0 | 10.0 | 0.01 | 0.06 | 0.06 | 94 | 1010.1 |
| 20260508133410 | 54 | 243 | 5.0 | 9.0 | 0.02 | 0.06 | 0.06 | 94 | 1010.2 |
| 20260508132911 | 54 | 235 | 6.0 | 9.0 | 0.02 | 0.06 | 0.06 | 95 | 1010.2 |
| 20260508131408 | 54 | 257 | 7.0 | 12.0 | 0.02 | 0.06 | 0.06 | 96 | 1010.2 |
| 20260508130909 | 54 | 255 | 9.0 | 15.0 | 0.02 | 0.06 | 0.06 | 97 | 1010.2 |
| 20260508125910 | 54 | 241 | 6.0 | 12.0 | 0.02 | 0.06 | 0.06 | 97 | 1010.3 |
| 20260508125409 | 53 | 247 | 6.0 | 12.0 | 0.02 | 0.06 | 0.06 | 97 | 1010.2 |
| 20260508124909 | 53 | 250 | 5.0 | 12.0 | 0.01 | 0.06 | 0.06 | 95 | 1010.2 |
| 20260508124409 | 53 | 233 | 8.0 | 15.0 | 0.01 | 0.06 | 0.06 | 94 | 1010.2 |
| 20260508123409 | 55 | 243 | 10.0 | 18.0 | 0.00 | 0.05 | 0.05 | 88 | 1009.9 |
| 20260508122910 | 56 | 240 | 10.0 | 24.0 | 0.00 | 0.05 | 0.05 | 86 | 1009.8 |
| 20260508122410 | 57 | 238 | 10.0 | 23.0 | 0.00 | 0.05 | 0.05 | 86 | 1009.7 |
| 20260508121909 | 57 | 229 | 7.0 | 12.0 | 0.00 | 0.05 | 0.05 | 87 | 1009.8 |
| 20260508120910 | 56 | 225 | 8.0 | 12.0 | 0.00 | 0.05 | 0.05 | 87 | 1009.7 |
| 20260508120409 | 57 | 226 | 10.0 | 14.0 | 0.00 | 0.05 | 0.05 | 81 | 1009.7 |
| 20260508115910 | 59 | 226 | 12.0 | 20.0 | 0.00 | 0.05 | 0.05 | 76 | 1009.6 |
| 20260508115409 | 60 | 230 | 9.0 | 16.0 | 0.00 | 0.05 | 0.05 | 75 | 1009.5 |
| 20260508114909 | 60 | 228 | 9.0 | 12.0 | 0.00 | 0.05 | 0.05 | 77 | 1009.5 |
| 20260508114409 | 60 | 227 | 9.0 | 12.0 | 0.00 | 0.05 | 0.05 | 75 | 1009.5 |
| 20260508113410 | 62 | 218 | 9.0 | 14.0 | 0.00 | 0.05 | 0.05 | 78 | 1009.5 |
| 20260508112911 | 62 | 218 | 8.0 | 15.0 | 0.00 | 0.05 | 0.05 | 77 | 1009.5 |
| 20260508112409 | 61 | 229 | 8.0 | 15.0 | 0.00 | 0.05 | 0.05 | 76 | 1009.5 |
| 20260508111409 | 60 | 229 | 11.0 | 15.0 | 0.00 | 0.05 | 0.05 | 77 | 1009.6 |
| 20260508110910 | 60 | 217 | 9.0 | 13.0 | 0.00 | 0.05 | 0.05 | 80 | 1009.6 |
| 20260508110410 | 59 | 221 | 7.0 | 12.0 | 0.00 | 0.05 | 0.05 | 80 | 1009.6 |
| 20260508105409 | 58 | 245 | 3.0 | 7.0 | 0.00 | 0.05 | 0.05 | 81 | 1009.7 |
| 20260508104909 | 58 | 244 | 3.0 | 5.0 | 0.00 | 0.05 | 0.05 | 85 | 1009.8 |
| 20260508104409 | 57 | 244 | 2.0 | 5.0 | 0.00 | 0.05 | 0.05 | 86 | 1009.8 |
| 20260508103909 | 57 | 244 | 1.0 | 5.0 | 0.00 | 0.05 | 0.05 | 84 | 1009.8 |
| 20260508103409 | 57 | 243 | 3.0 | 5.0 | 0.00 | 0.05 | 0.05 | 86 | 1009.9 |
| 20260508102910 | 57 | 243 | 2.0 | 6.0 | 0.00 | 0.05 | 0.05 | 85 | 1010.0 |
| 20260508102409 | 57 | 242 | 3.0 | 6.0 | 0.00 | 0.05 | 0.05 | 89 | 1010.0 |
| 20260508101409 | 56 | 250 | 5.0 | 7.0 | 0.00 | 0.05 | 0.05 | 88 | 1010.0 |
| 20260508100409 | 56 | 241 | 4.0 | 7.0 | 0.00 | 0.05 | 0.05 | 87 | 1010.0 |
| 20260508095911 | 57 | 247 | 4.0 | 8.0 | 0.00 | 0.05 | 0.05 | 88 | 1010.0 |
| 20260508095410 | 57 | 241 | 5.0 | 7.0 | 0.00 | 0.05 | 0.05 | 87 | 1010.0 |
| 20260508094909 | 57 | 242 | 6.0 | 9.0 | 0.00 | 0.05 | 0.05 | 86 | 1009.9 |
| 20260508094410 | 57 | 221 | 5.0 | 8.0 | 0.00 | 0.05 | 0.05 | 90 | 1009.8 |
| 20260508093909 | 57 | 211 | 3.0 | 6.0 | 0.00 | 0.05 | 0.05 | 92 | 1009.7 |
| 20260508093409 | 56 | 210 | 3.0 | 6.0 | 0.00 | 0.05 | 0.05 | 94 | 1009.7 |
| 20260508092910 | 54 | 210 | 3.0 | 6.0 | 0.00 | 0.05 | 0.05 | 94 | 1009.7 |
| 20260508092409 | 54 | 205 | 4.0 | 6.0 | 0.00 | 0.05 | 0.05 | 95 | 1009.7 |
| 20260508091909 | 54 | 187 | 5.0 | 6.0 | 0.00 | 0.05 | 0.05 | 95 | 1009.8 |
| 20260508091409 | 54 | 86 | 1.0 | 3.0 | 0.00 | 0.05 | 0.05 | 93 | 1009.8 |
| 20260508090909 | 54 | 86 | 0.0 | 0.0 | 0.00 | 0.05 | 0.05 | 95 | 1009.7 |
| 20260508085409 | 53 | 86 | 0.0 | 1.0 | 0.00 | 0.05 | 0.05 | 95 | 1009.7 |
| 20260508084909 | 53 | 86 | 0.0 | 0.0 | 0.00 | 0.05 | 0.05 | 95 | 1009.7 |
| 20260508084409 | 52 | 86 | 0.0 | 0.0 | 0.00 | 0.05 | 0.05 | 97 | 1009.7 |
| 20260508083909 | 52 | 86 | 1.0 | 2.0 | 0.00 | 0.05 | 0.05 | 98 | 1009.6 |
| 20260508083409 | 52 | 86 | 1.0 | 3.0 | 0.00 | 0.05 | 0.05 | 98 | 1009.6 |
| 20260508082911 | 51 | 86 | 1.0 | 5.0 | 0.00 | 0.05 | 0.05 | 99 | 1009.7 |
| 20260508082409 | 51 | 87 | 1.0 | 3.0 | 0.00 | 0.05 | 0.05 | 99 | 1009.7 |
| 20260508081409 | 51 | 87 | 0.0 | 1.0 | 0.00 | 0.05 | 0.05 | 99 | 1009.6 |
| 20260508080909 | 50 | 87 | 0.0 | 0.0 | 0.00 | 0.05 | 0.05 | 99 | 1009.6 |
| 20260508080409 | 50 | 87 | 0.0 | 2.0 | 0.00 | 0.05 | 0.05 | 99 | 1009.5 |
| 20260508075910 | 50 | 87 | 1.0 | 2.0 | 0.01 | 0.05 | 0.05 | 99 | 1009.6 |
| 20260508075409 | 50 | 87 | 1.0 | 3.0 | 0.01 | 0.05 | 0.05 | 99 | 1009.6 |
| 20260508074910 | 49 | 87 | 1.0 | 3.0 | 0.02 | 0.05 | 0.05 | 99 | 1009.5 |
| 20260508074410 | 49 | 86 | 0.0 | 0.0 | 0.03 | 0.05 | 0.05 | 99 | 1009.5 |
| 20260508073909 | 49 | 86 | 0.0 | 2.0 | 0.04 | 0.05 | 0.05 | 99 | 1009.3 |
| 20260508073410 | 49 | 86 | 1.0 | 3.0 | 0.05 | 0.05 | 0.05 | 99 | 1009.3 |
| 20260508072911 | 49 | 11 | 0.0 | 5.0 | 0.05 | 0.05 | 0.05 | 99 | 1009.2 |
| 20260508072409 | 49 | 5 | 3.0 | 7.0 | 0.05 | 0.05 | 0.05 | 99 | 1009.2 |
| 20260508071909 | 49 | 334 | 3.0 | 10.0 | 0.05 | 0.05 | 0.05 | 99 | 1009.2 |
| 20260508071409 | 49 | 37 | 6.0 | 8.0 | 0.05 | 0.05 | 0.05 | 99 | 1008.9 |
| 20260508070910 | 49 | 47 | 2.0 | 5.0 | 0.05 | 0.05 | 0.05 | 98 | 1008.9 |
| 20260508070409 | 49 | 51 | 3.0 | 7.0 | 0.05 | 0.05 | 0.05 | 98 | 1009.0 |
| 20260508065910 | 49 | 52 | 2.0 | 5.0 | 0.04 | 0.04 | 0.04 | 98 | 1009.1 |
| 20260508065409 | 49 | 276 | 1.0 | 2.0 | 0.04 | 0.04 | 0.04 | 98 | 1009.3 |
| 20260508064909 | 49 | 276 | 1.0 | 2.0 | 0.03 | 0.03 | 0.03 | 98 | 1009.7 |
| 20260508063910 | 48 | 276 | 0.0 | 2.0 | 0.01 | 0.01 | 0.01 | 98 | 1009.7 |
| 20260508063409 | 48 | 276 | 1.0 | 3.0 | 0.00 | 0.00 | 0.00 | 98 | 1009.6 |
| 20260508062910 | 48 | 276 | 0.0 | 0.0 | 0.00 | 0.00 | 0.00 | 98 | 1009.5 |
| 20260508062409 | 48 | 276 | 0.0 | 0.0 | 0.00 | 0.00 | 0.00 | 98 | 1009.4 |
| 20260508061909 | 48 | 276 | 0.0 | 0.0 | 0.00 | 0.00 | 0.00 | 98 | 1009.4 |
| 20260508060909 | 48 | 276 | 0.0 | 1.0 | 0.00 | 0.00 | 0.00 | 98 | 1009.3 |
| 20260508060409 | 48 | 276 | 1.0 | 3.0 | 0.00 | 0.00 | 0.00 | 98 | 1009.2 |
| 20260508055910 | 48 | 276 | 0.0 | 3.0 | 0.00 | 0.00 | 0.00 | 98 | 1009.2 |
| 20260508055410 | 48 | 276 | 3.0 | 3.0 | 0.00 | 0.00 | 0.00 | 98 | 1009.0 |
| 20260508054910 | 48 | 276 | 0.0 | 0.0 | 0.00 | 0.00 | 0.00 | 98 | 1009.3 |
| 20260508054410 | 48 | 276 | 0.0 | 0.0 | 0.00 | 0.00 | 0.00 | 97 | 1009.1 |
| 20260508053409 | 48 | 276 | 0.0 | 2.0 | 0.00 | 0.00 | 0.00 | 98 | 1009.0 |
| 20260508052910 | 48 | 276 | 0.0 | 3.0 | 0.00 | 0.00 | 0.00 | 98 | 1009.0 |
| 20260508052410 | 48 | 276 | 0.0 | 2.0 | 0.00 | 0.00 | 0.00 | 97 | 1008.8 |
| 20260508051909 | 48 | 276 | 1.0 | 3.0 | 0.00 | 0.00 | 0.00 | 97 | 1008.8 |
| 20260508051409 | 48 | 276 | 3.0 | 5.0 | 0.00 | 0.00 | 0.00 | 97 | 1008.8 |
| 20260508050909 | 48 | 276 | 2.0 | 5.0 | 0.00 | 0.00 | 0.00 | 97 | 1008.8 |
| 20260508050410 | 48 | 276 | 5.0 | 6.0 | 0.00 | 0.00 | 0.00 | 97 | 1008.9 |
| 20260508045910 | 48 | 276 | 5.0 | 6.0 | 0.00 | 0.00 | 0.00 | 97 | 1008.8 |
| 20260508045409 | 48 | 276 | 5.0 | 6.0 | 0.00 | 0.00 | 0.00 | 97 | 1008.6 |
| 20260508044910 | 48 | 276 | 3.0 | 3.0 | 0.00 | 0.00 | 0.00 | 97 | 1008.4 |
| 20260508044410 | 48 | 276 | 1.0 | 5.0 | 0.00 | 0.00 | 0.00 | 97 | 1008.5 |
| 20260508043410 | 48 | 276 | 4.0 | 5.0 | 0.00 | 0.00 | 0.00 | 97 | 1008.5 |
| 20260508042910 | 48 | 276 | 5.0 | 5.0 | 0.00 | 0.00 | 0.00 | 97 | 1008.6 |
| 20260508042409 | 48 | 276 | 3.0 | 5.0 | 0.00 | 0.00 | 0.00 | 97 | 1008.6 |
| 20260508040909 | 48 | 277 | 6.0 | 6.0 | 0.00 | 0.00 | 0.00 | 97 | 1008.5 |
| 20260508040409 | 48 | 38 | 5.0 | 5.0 | 0.00 | 0.00 | 0.00 | 97 | 1008.6 |
| 20260508035911 | 48 | 38 | 4.0 | 5.0 | 0.00 | 0.00 | 0.00 | 97 | 1008.8 |
| 20260508035409 | 48 | 38 | 0.0 | 2.0 | 0.00 | 0.00 | 0.00 | 97 | 1008.8 |
| 20260508034909 | 48 | 38 | 0.0 | 0.0 | 0.00 | 0.00 | 0.00 | 97 | 1008.8 |
| 20260508034409 | 48 | 38 | 0.0 | 1.0 | 0.00 | 0.00 | 0.00 | 97 | 1008.8 |
| 20260508033910 | 48 | 38 | 1.0 | 2.0 | 0.00 | 0.00 | 0.00 | 97 | 1008.7 |
| 20260508032911 | 48 | 38 | 2.0 | 3.0 | 0.00 | 0.00 | 0.00 | 97 | 1008.9 |
| 20260508031909 | 48 | 38 | 0.0 | 2.0 | 0.00 | 0.00 | 0.00 | 96 | 1008.9 |
| 20260508031410 | 48 | 38 | 0.0 | 0.0 | 0.00 | 0.00 | 0.00 | 96 | 1009.0 |
| 20260508030909 | 48 | 38 | 0.0 | 0.0 | 0.00 | 0.00 | 0.00 | 97 | 1009.1 |
| 20260508030410 | 48 | 38 | 0.0 | 0.0 | 0.00 | 0.00 | 0.00 | 97 | 1009.1 |
| 20260508025910 | 48 | 38 | 0.0 | 2.0 | 0.00 | 0.00 | 0.00 | 97 | 1009.0 |
| 20260508025410 | 48 | 38 | 1.0 | 2.0 | 0.00 | 0.00 | 0.00 | 97 | 1009.0 |
| 20260508024909 | 48 | 38 | 1.0 | 2.0 | 0.00 | 0.00 | 0.00 | 96 | 1009.0 |
| 20260508024409 | 49 | 38 | 0.0 | 3.0 | 0.00 | 0.00 | 0.00 | 97 | 1009.2 |
| 20260508023909 | 49 | 38 | 1.0 | 2.0 | 0.00 | 0.00 | 0.00 | 97 | 1009.2 |
| 20260508023409 | 49 | 38 | 2.0 | 3.0 | 0.00 | 0.00 | 0.00 | 96 | 1009.2 |
| 20260508022409 | 48 | 38 | 1.0 | 3.0 | 0.00 | 0.00 | 0.00 | 96 | 1009.4 |
| 20260508021910 | 48 | 38 | 2.0 | 5.0 | 0.00 | 0.00 | 0.00 | 96 | 1009.3 |
| 20260508021409 | 48 | 38 | 1.0 | 3.0 | 0.00 | 0.00 | 0.00 | 96 | 1009.4 |
| 20260508020909 | 48 | 38 | 0.0 | 1.0 | 0.00 | 0.00 | 0.00 | 96 | 1009.5 |
| 20260508020409 | 48 | 38 | 1.0 | 2.0 | 0.00 | 0.00 | 0.00 | 96 | 1009.6 |
| 20260508015911 | 48 | 38 | 0.0 | 0.0 | 0.00 | 0.00 | 0.00 | 96 | 1009.6 |
| 20260508015410 | 48 | 38 | 0.0 | 0.0 | 0.00 | 0.00 | 0.00 | 96 | 1009.6 |
| 20260508014910 | 48 | 38 | 0.0 | 0.0 | 0.00 | 0.00 | 0.00 | 96 | 1009.6 |
| 20260508014409 | 48 | 38 | 0.0 | 0.0 | 0.00 | 0.00 | 0.00 | 96 | 1009.8 |
| 20260508013909 | 48 | 38 | 0.0 | 0.0 | 0.00 | 0.00 | 0.00 | 95 | 1009.6 |
| 20260508013410 | 48 | 38 | 0.0 | 0.0 | 0.00 | 0.00 | 0.00 | 95 | 1009.7 |
| 20260508012409 | 48 | 38 | 0.0 | 0.0 | 0.00 | 0.00 | 0.00 | 95 | 1009.9 |
| 20260508011910 | 48 | 38 | 0.0 | 1.0 | 0.00 | 0.00 | 0.00 | 95 | 1009.9 |
| 20260508011409 | 48 | 38 | 0.0 | 2.0 | 0.00 | 0.00 | 0.00 | 95 | 1009.9 |
| 20260508005910 | 48 | 38 | 0.0 | 0.0 | 0.00 | 0.00 | 0.00 | 94 | 1010.0 |
| 20260508005409 | 48 | 38 | 0.0 | 0.0 | 0.00 | 0.00 | 0.00 | 94 | 1010.1 |
| 20260508004910 | 48 | 38 | 0.0 | 0.0 | 0.00 | 0.00 | 0.00 | 94 | 1010.1 |
| 20260508004409 | 49 | 38 | 0.0 | 0.0 | 0.00 | 0.00 | 0.00 | 94 | 1010.2 |
| 20260508003910 | 49 | 38 | 0.0 | 0.0 | 0.00 | 0.00 | 0.00 | 94 | 1010.3 |
| 20260508003409 | 49 | 38 | 0.0 | 0.0 | 0.00 | 0.00 | 0.00 | 94 | 1010.4 |
| 20260508002910 | 49 | 38 | 0.0 | 0.0 | 0.00 | 0.00 | 0.00 | 93 | 1010.4 |
| 20260508002410 | 49 | 38 | 0.0 | 0.0 | 0.00 | 0.00 | 0.00 | 93 | 1010.5 |
| 20260508001410 | 49 | 38 | 0.0 | 0.0 | 0.00 | 0.00 | 0.00 | 93 | 1010.5 |
| 20260508000910 | 49 | 38 | 0.0 | 0.0 | 0.00 | 0.00 | 0.00 | 93 | 1010.6 |
| 20260508000409 | 49 | 38 | 0.0 | 1.0 | 0.00 | 0.00 | 0.00 | 94 | 1010.6 |
| 20260507235911 | 49 | 38 | 0.0 | 1.0 | 0.00 | 0.00 | 0.00 | 94 | 1010.6 |
| 20260507235409 | 49 | 38 | 0.0 | 2.0 | 0.00 | 0.00 | 0.00 | 93 | 1010.6 |
| 20260507234910 | 50 | 38 | 2.0 | 3.0 | 0.00 | 0.00 | 0.00 | 93 | 1010.7 |
| 20260507234409 | 50 | 38 | 1.0 | 5.0 | 0.00 | 0.00 | 0.00 | 93 | 1010.8 |
| 20260507233909 | 50 | 37 | 1.0 | 5.0 | 0.00 | 0.00 | 0.00 | 92 | 1010.8 |
| 20260507233409 | 50 | 284 | 0.0 | 2.0 | 0.00 | 0.00 | 0.00 | 92 | 1010.9 |
| 20260507232910 | 50 | 284 | 1.0 | 2.0 | 0.00 | 0.00 | 0.00 | 92 | 1010.8 |
| 20260507232409 | 50 | 284 | 1.0 | 2.0 | 0.00 | 0.00 | 0.00 | 92 | 1010.9 |
| 20260507231909 | 50 | 284 | 0.0 | 2.0 | 0.00 | 0.00 | 0.00 | 92 | 1010.9 |
| 20260507231409 | 50 | 284 | 1.0 | 2.0 | 0.00 | 0.00 | 0.00 | 92 | 1010.9 |
| 20260507230909 | 50 | 284 | 1.0 | 2.0 | 0.00 | 0.00 | 0.00 | 92 | 1010.9 |
| 20260507230410 | 50 | 284 | 1.0 | 3.0 | 0.00 | 0.00 | 0.00 | 92 | 1010.9 |
| 20260507225910 | 50 | 284 | 2.0 | 5.0 | 0.00 | 0.00 | 0.00 | 92 | 1011.0 |
| 20260507225409 | 51 | 284 | 0.0 | 3.0 | 0.00 | 0.00 | 0.00 | 92 | 1010.9 |
| 20260507224909 | 51 | 283 | 0.0 | 1.0 | 0.00 | 0.00 | 0.00 | 92 | 1011.0 |
| 20260507224410 | 51 | 283 | 0.0 | 0.0 | 0.00 | 0.00 | 0.00 | 92 | 1011.1 |
| 20260507223910 | 51 | 283 | 0.0 | 0.0 | 0.00 | 0.00 | 0.00 | 92 | 1011.2 |
| 20260507223409 | 51 | 283 | 0.0 | 0.0 | 0.00 | 0.00 | 0.00 | 91 | 1011.2 |
| 20260507222911 | 51 | 283 | 0.0 | 0.0 | 0.00 | 0.00 | 0.00 | 91 | 1011.3 |
| 20260507222409 | 51 | 283 | 0.0 | 0.0 | 0.00 | 0.00 | 0.00 | 91 | 1011.3 |
| 20260507221909 | 51 | 283 | 0.0 | 0.0 | 0.00 | 0.00 | 0.00 | 91 | 1011.3 |
| 20260507221409 | 52 | 283 | 0.0 | 0.0 | 0.00 | 0.00 | 0.00 | 91 | 1011.4 |
| 20260507220909 | 52 | 283 | 0.0 | 2.0 | 0.00 | 0.00 | 0.00 | 91 | 1011.4 |
| 20260507220409 | 52 | 283 | 1.0 | 3.0 | 0.00 | 0.00 | 0.00 | 91 | 1011.4 |
| 20260507215910 | 52 | 283 | 2.0 | 3.0 | 0.00 | 0.00 | 0.00 | 91 | 1011.5 |
| 20260507215409 | 52 | 283 | 2.0 | 5.0 | 0.00 | 0.00 | 0.00 | 90 | 1011.5 |
| 20260507213909 | 52 | 284 | 3.0 | 7.0 | 0.00 | 0.00 | 0.00 | 89 | 1011.5 |
| 20260507213409 | 52 | 239 | 0.0 | 2.0 | 0.00 | 0.00 | 0.00 | 89 | 1011.5 |
| 20260507212410 | 53 | 239 | 0.0 | 0.0 | 0.00 | 0.00 | 0.00 | 88 | 1011.6 |
| 20260507211909 | 53 | 239 | 0.0 | 3.0 | 0.00 | 0.00 | 0.00 | 87 | 1011.6 |
| 20260507211410 | 53 | 239 | 5.0 | 7.0 | 0.00 | 0.00 | 0.00 | 87 | 1011.5 |
| 20260507210909 | 53 | 239 | 5.0 | 8.0 | 0.00 | 0.00 | 0.00 | 87 | 1011.4 |
| 20260507210409 | 53 | 238 | 5.0 | 8.0 | 0.00 | 0.00 | 0.00 | 86 | 1011.4 |
| 20260507205910 | 53 | 246 | 6.0 | 9.0 | 0.00 | 0.00 | 0.00 | 86 | 1011.3 |
| 20260507204909 | 54 | 240 | 3.0 | 7.0 | 0.00 | 0.00 | 0.00 | 85 | 1011.3 |
| 20260507204409 | 54 | 242 | 6.0 | 9.0 | 0.00 | 0.00 | 0.00 | 85 | 1011.1 |
| 20260507203910 | 54 | 242 | 6.0 | 9.0 | 0.00 | 0.00 | 0.00 | 84 | 1011.1 |
| 20260507203409 | 54 | 235 | 5.0 | 8.0 | 0.00 | 0.00 | 0.00 | 83 | 1011.0 |
| 20260507202910 | 55 | 254 | 5.0 | 7.0 | 0.00 | 0.00 | 0.00 | 83 | 1011.0 |
| 20260507201910 | 55 | 256 | 3.0 | 7.0 | 0.00 | 0.00 | 0.00 | 81 | 1010.8 |
| 20260507201410 | 55 | 237 | 7.0 | 9.0 | 0.00 | 0.00 | 0.00 | 81 | 1010.7 |
| 20260507200910 | 55 | 238 | 7.0 | 10.0 | 0.00 | 0.00 | 0.00 | 79 | 1010.6 |
| 20260507200409 | 56 | 201 | 6.0 | 9.0 | 0.00 | 0.00 | 0.00 | 79 | 1010.5 |
| 20260507195910 | 56 | 219 | 5.0 | 7.0 | 0.00 | 0.00 | 0.00 | 78 | 1010.5 |
| 20260507195409 | 56 | 236 | 4.0 | 6.0 | 0.00 | 0.00 | 0.00 | 78 | 1010.4 |
| 20260507193909 | 57 | 248 | 5.0 | 8.0 | 0.00 | 0.00 | 0.00 | 76 | 1010.2 |
| 20260507193409 | 57 | 237 | 5.0 | 9.0 | 0.00 | 0.00 | 0.00 | 75 | 1010.1 |
| 20260507192910 | 58 | 230 | 6.0 | 10.0 | 0.00 | 0.00 | 0.00 | 74 | 1010.0 |
| 20260507192410 | 58 | 223 | 5.0 | 6.0 | 0.00 | 0.00 | 0.00 | 74 | 1009.9 |
| 20260507191910 | 58 | 223 | 6.0 | 9.0 | 0.00 | 0.00 | 0.00 | 74 | 1009.9 |
| 20260507191409 | 59 | 243 | 6.0 | 9.0 | 0.00 | 0.00 | 0.00 | 74 | 1009.9 |
| 20260507190909 | 59 | 245 | 6.0 | 9.0 | 0.00 | 0.00 | 0.00 | 73 | 1009.8 |
| 20260507190410 | 59 | 237 | 7.0 | 10.0 | 0.00 | 0.00 | 0.00 | 73 | 1009.8 |
| 20260507185410 | 59 | 245 | 6.0 | 10.0 | 0.00 | 0.00 | 0.00 | 72 | 1009.8 |
| 20260507184909 | 60 | 248 | 7.0 | 12.0 | 0.00 | 0.00 | 0.00 | 72 | 1009.8 |
| 20260507184410 | 60 | 231 | 9.0 | 13.0 | 0.00 | 0.00 | 0.00 | 73 | 1009.8 |
| 20260507183910 | 60 | 238 | 6.0 | 10.0 | 0.00 | 0.00 | 0.00 | 73 | 1009.6 |
| 20260507183409 | 60 | 244 | 7.0 | 13.0 | 0.00 | 0.00 | 0.00 | 73 | 1009.6 |
| 20260507182910 | 60 | 238 | 7.0 | 14.0 | 0.00 | 0.00 | 0.00 | 73 | 1009.6 |